sensor_id;sensor_type;location;lat;lon;timestamp;P1;durP1;ratioP1;P2;durP2;ratioP2
47866;SDS011;33628;50.806;11.586;2022-11-15T00:01:41;29.30;;;13.35;;
47866;SDS011;33628;50.806;11.586;2022-11-15T00:04:41;27.07;;;12.43;;
47866;SDS011;33628;50.806;11.586;2022-11-15T00:07:30;24.58;;;12.23;;
47866;SDS011;33628;50.806;11.586;2022-11-15T00:10:29;25.85;;;12.88;;
47866;SDS011;33628;50.806;11.586;2022-11-15T00:13:28;30.98;;;12.93;;
47866;SDS011;33628;50.806;11.586;2022-11-15T00:16:18;24.85;;;12.65;;
47866;SDS011;33628;50.806;11.586;2022-11-15T00:19:25;22.48;;;12.05;;
47866;SDS011;33628;50.806;11.586;2022-11-15T00:25:29;25.00;;;11.88;;
47866;SDS011;33628;50.806;11.586;2022-11-15T00:28:21;26.15;;;12.48;;
47866;SDS011;33628;50.806;11.586;2022-11-15T00:31:11;22.63;;;12.27;;
47866;SDS011;33628;50.806;11.586;2022-11-15T00:34:08;24.08;;;13.07;;
47866;SDS011;33628;50.806;11.586;2022-11-15T00:36:57;26.92;;;16.05;;
47866;SDS011;33628;50.806;11.586;2022-11-15T00:43:28;27.48;;;14.07;;
47866;SDS011;33628;50.806;11.586;2022-11-15T00:46:28;28.13;;;13.20;;
47866;SDS011;33628;50.806;11.586;2022-11-15T00:49:21;26.23;;;13.90;;
47866;SDS011;33628;50.806;11.586;2022-11-15T00:52:06;31.17;;;16.45;;
47866;SDS011;33628;50.806;11.586;2022-11-15T00:54:51;26.33;;;13.32;;
47866;SDS011;33628;50.806;11.586;2022-11-15T00:57:36;29.42;;;13.52;;
47866;SDS011;33628;50.806;11.586;2022-11-15T01:00:23;30.25;;;14.05;;
47866;SDS011;33628;50.806;11.586;2022-11-15T01:03:08;25.75;;;14.77;;
47866;SDS011;33628;50.806;11.586;2022-11-15T01:05:53;25.77;;;14.60;;
47866;SDS011;33628;50.806;11.586;2022-11-15T01:08:41;25.33;;;12.93;;
47866;SDS011;33628;50.806;11.586;2022-11-15T01:11:27;24.48;;;12.43;;
47866;SDS011;33628;50.806;11.586;2022-11-15T01:14:12;28.70;;;13.18;;
47866;SDS011;33628;50.806;11.586;2022-11-15T01:16:58;22.75;;;12.32;;
47866;SDS011;33628;50.806;11.586;2022-11-15T01:19:44;23.42;;;12.65;;
47866;SDS011;33628;50.806;11.586;2022-11-15T01:22:29;23.17;;;13.18;;
47866;SDS011;33628;50.806;11.586;2022-11-15T01:25:14;24.33;;;10.77;;
47866;SDS011;33628;50.806;11.586;2022-11-15T01:27:59;22.92;;;11.85;;
47866;SDS011;33628;50.806;11.586;2022-11-15T01:30:44;27.45;;;11.70;;
47866;SDS011;33628;50.806;11.586;2022-11-15T01:33:33;30.75;;;11.77;;
47866;SDS011;33628;50.806;11.586;2022-11-15T01:36:20;28.02;;;15.07;;
47866;SDS011;33628;50.806;11.586;2022-11-15T01:41:51;22.30;;;11.55;;
47866;SDS011;33628;50.806;11.586;2022-11-15T01:44:43;23.70;;;12.90;;
47866;SDS011;33628;50.806;11.586;2022-11-15T01:47:31;21.27;;;12.85;;
47866;SDS011;33628;50.806;11.586;2022-11-15T01:50:22;23.88;;;14.32;;
47866;SDS011;33628;50.806;11.586;2022-11-15T01:53:09;19.38;;;11.45;;
47866;SDS011;33628;50.806;11.586;2022-11-15T01:55:54;33.95;;;14.45;;
47866;SDS011;33628;50.806;11.586;2022-11-15T01:58:40;24.38;;;11.73;;
47866;SDS011;33628;50.806;11.586;2022-11-15T02:01:25;32.83;;;15.02;;
47866;SDS011;33628;50.806;11.586;2022-11-15T02:04:11;39.58;;;15.85;;
47866;SDS011;33628;50.806;11.586;2022-11-15T02:07:00;28.85;;;12.68;;
47866;SDS011;33628;50.806;11.586;2022-11-15T02:09:47;26.88;;;12.52;;
47866;SDS011;33628;50.806;11.586;2022-11-15T02:12:32;26.30;;;11.48;;
47866;SDS011;33628;50.806;11.586;2022-11-15T02:15:17;23.55;;;11.32;;
47866;SDS011;33628;50.806;11.586;2022-11-15T02:18:07;22.63;;;11.38;;
47866;SDS011;33628;50.806;11.586;2022-11-15T02:20:58;25.55;;;11.10;;
47866;SDS011;33628;50.806;11.586;2022-11-15T02:30:38;23.17;;;11.95;;
47866;SDS011;33628;50.806;11.586;2022-11-15T02:33:28;19.83;;;11.57;;
47866;SDS011;33628;50.806;11.586;2022-11-15T02:36:20;22.48;;;12.13;;
47866;SDS011;33628;50.806;11.586;2022-11-15T02:39:14;21.15;;;11.40;;
47866;SDS011;33628;50.806;11.586;2022-11-15T02:42:04;22.15;;;11.27;;
47866;SDS011;33628;50.806;11.586;2022-11-15T02:45:13;23.02;;;12.35;;
47866;SDS011;33628;50.806;11.586;2022-11-15T02:48:03;22.52;;;11.20;;
47866;SDS011;33628;50.806;11.586;2022-11-15T02:50:49;22.02;;;11.35;;
47866;SDS011;33628;50.806;11.586;2022-11-15T02:53:34;23.77;;;10.70;;
47866;SDS011;33628;50.806;11.586;2022-11-15T02:56:19;27.90;;;13.05;;
47866;SDS011;33628;50.806;11.586;2022-11-15T02:59:08;33.10;;;13.07;;
47866;SDS011;33628;50.806;11.586;2022-11-15T03:02:02;26.42;;;13.80;;
47866;SDS011;33628;50.806;11.586;2022-11-15T03:04:55;23.20;;;12.70;;
47866;SDS011;33628;50.806;11.586;2022-11-15T03:07:43;28.65;;;12.70;;
47866;SDS011;33628;50.806;11.586;2022-11-15T03:10:35;28.52;;;13.95;;
47866;SDS011;33628;50.806;11.586;2022-11-15T03:13:25;25.80;;;12.18;;
47866;SDS011;33628;50.806;11.586;2022-11-15T03:16:13;31.92;;;15.93;;
47866;SDS011;33628;50.806;11.586;2022-11-15T03:19:03;29.17;;;14.82;;
47866;SDS011;33628;50.806;11.586;2022-11-15T03:21:52;20.77;;;13.07;;
47866;SDS011;33628;50.806;11.586;2022-11-15T03:24:39;24.27;;;12.15;;
47866;SDS011;33628;50.806;11.586;2022-11-15T03:27:27;22.23;;;13.10;;
47866;SDS011;33628;50.806;11.586;2022-11-15T03:30:13;24.77;;;13.15;;
47866;SDS011;33628;50.806;11.586;2022-11-15T03:32:59;25.38;;;13.32;;
47866;SDS011;33628;50.806;11.586;2022-11-15T03:35:45;19.45;;;10.55;;
47866;SDS011;33628;50.806;11.586;2022-11-15T03:38:32;21.00;;;10.93;;
47866;SDS011;33628;50.806;11.586;2022-11-15T03:41:20;22.98;;;12.52;;
47866;SDS011;33628;50.806;11.586;2022-11-15T03:44:10;21.23;;;12.50;;
47866;SDS011;33628;50.806;11.586;2022-11-15T03:47:00;21.30;;;12.32;;
47866;SDS011;33628;50.806;11.586;2022-11-15T03:49:49;20.45;;;11.45;;
47866;SDS011;33628;50.806;11.586;2022-11-15T03:52:36;22.45;;;11.88;;
47866;SDS011;33628;50.806;11.586;2022-11-15T03:55:23;19.95;;;10.15;;
47866;SDS011;33628;50.806;11.586;2022-11-15T03:58:09;17.65;;;9.13;;
47866;SDS011;33628;50.806;11.586;2022-11-15T04:00:54;13.73;;;7.78;;
47866;SDS011;33628;50.806;11.586;2022-11-15T04:03:39;16.65;;;8.68;;
47866;SDS011;33628;50.806;11.586;2022-11-15T04:06:24;24.20;;;12.88;;
47866;SDS011;33628;50.806;11.586;2022-11-15T04:09:09;29.02;;;15.43;;
47866;SDS011;33628;50.806;11.586;2022-11-15T04:11:56;23.58;;;11.65;;
47866;SDS011;33628;50.806;11.586;2022-11-15T04:14:41;20.70;;;11.65;;
47866;SDS011;33628;50.806;11.586;2022-11-15T04:17:47;22.52;;;13.90;;
47866;SDS011;33628;50.806;11.586;2022-11-15T04:20:33;22.17;;;11.63;;
47866;SDS011;33628;50.806;11.586;2022-11-15T04:23:37;19.10;;;11.15;;
47866;SDS011;33628;50.806;11.586;2022-11-15T04:26:52;18.88;;;11.25;;
47866;SDS011;33628;50.806;11.586;2022-11-15T04:29:38;21.98;;;11.65;;
47866;SDS011;33628;50.806;11.586;2022-11-15T04:32:23;19.67;;;11.20;;
47866;SDS011;33628;50.806;11.586;2022-11-15T04:35:08;20.45;;;11.20;;
47866;SDS011;33628;50.806;11.586;2022-11-15T04:37:54;22.98;;;12.15;;
47866;SDS011;33628;50.806;11.586;2022-11-15T04:40:39;19.95;;;11.40;;
47866;SDS011;33628;50.806;11.586;2022-11-15T04:43:24;20.77;;;13.20;;
47866;SDS011;33628;50.806;11.586;2022-11-15T04:46:11;20.27;;;10.63;;
47866;SDS011;33628;50.806;11.586;2022-11-15T04:48:56;23.33;;;13.00;;
47866;SDS011;33628;50.806;11.586;2022-11-15T04:51:41;41.58;;;21.02;;
47866;SDS011;33628;50.806;11.586;2022-11-15T04:54:28;57.08;;;29.90;;
47866;SDS011;33628;50.806;11.586;2022-11-15T04:57:13;51.30;;;22.98;;
47866;SDS011;33628;50.806;11.586;2022-11-15T04:59:58;36.67;;;19.13;;
47866;SDS011;33628;50.806;11.586;2022-11-15T05:02:45;51.70;;;21.50;;
47866;SDS011;33628;50.806;11.586;2022-11-15T05:05:49;20.15;;;11.20;;
47866;SDS011;33628;50.806;11.586;2022-11-15T05:08:34;16.90;;;9.48;;
47866;SDS011;33628;50.806;11.586;2022-11-15T05:11:20;17.88;;;8.40;;
47866;SDS011;33628;50.806;11.586;2022-11-15T05:14:05;16.05;;;8.55;;
47866;SDS011;33628;50.806;11.586;2022-11-15T05:16:50;20.85;;;8.80;;
47866;SDS011;33628;50.806;11.586;2022-11-15T05:19:37;22.08;;;8.73;;
47866;SDS011;33628;50.806;11.586;2022-11-15T05:22:22;17.63;;;10.32;;
47866;SDS011;33628;50.806;11.586;2022-11-15T05:25:07;18.52;;;9.27;;
47866;SDS011;33628;50.806;11.586;2022-11-15T05:27:53;18.98;;;10.65;;
47866;SDS011;33628;50.806;11.586;2022-11-15T05:30:38;18.77;;;10.63;;
47866;SDS011;33628;50.806;11.586;2022-11-15T05:33:23;24.70;;;12.80;;
47866;SDS011;33628;50.806;11.586;2022-11-15T05:36:12;28.35;;;13.52;;
47866;SDS011;33628;50.806;11.586;2022-11-15T05:39:00;21.80;;;10.35;;
47866;SDS011;33628;50.806;11.586;2022-11-15T05:41:46;19.52;;;10.68;;
47866;SDS011;33628;50.806;11.586;2022-11-15T05:44:32;19.73;;;10.18;;
47866;SDS011;33628;50.806;11.586;2022-11-15T05:47:18;25.20;;;10.98;;
47866;SDS011;33628;50.806;11.586;2022-11-15T05:50:06;17.63;;;10.20;;
47866;SDS011;33628;50.806;11.586;2022-11-15T05:52:53;29.92;;;13.20;;
47866;SDS011;33628;50.806;11.586;2022-11-15T05:55:39;28.05;;;15.80;;
47866;SDS011;33628;50.806;11.586;2022-11-15T05:58:24;26.15;;;11.93;;
47866;SDS011;33628;50.806;11.586;2022-11-15T06:01:09;22.80;;;11.38;;
47866;SDS011;33628;50.806;11.586;2022-11-15T06:03:55;17.48;;;9.55;;
47866;SDS011;33628;50.806;11.586;2022-11-15T06:06:40;22.02;;;10.80;;
47866;SDS011;33628;50.806;11.586;2022-11-15T06:09:26;27.95;;;12.68;;
47866;SDS011;33628;50.806;11.586;2022-11-15T06:12:11;19.35;;;7.15;;
47866;SDS011;33628;50.806;11.586;2022-11-15T06:14:57;22.35;;;9.98;;
47866;SDS011;33628;50.806;11.586;2022-11-15T06:17:42;24.52;;;9.88;;
47866;SDS011;33628;50.806;11.586;2022-11-15T06:20:27;25.10;;;11.98;;
47866;SDS011;33628;50.806;11.586;2022-11-15T06:23:14;18.45;;;9.80;;
47866;SDS011;33628;50.806;11.586;2022-11-15T06:26:00;19.58;;;9.13;;
47866;SDS011;33628;50.806;11.586;2022-11-15T06:28:47;21.13;;;8.60;;
47866;SDS011;33628;50.806;11.586;2022-11-15T06:31:32;21.33;;;9.13;;
47866;SDS011;33628;50.806;11.586;2022-11-15T06:34:18;21.70;;;9.88;;
47866;SDS011;33628;50.806;11.586;2022-11-15T06:37:03;21.35;;;10.60;;
47866;SDS011;33628;50.806;11.586;2022-11-15T06:39:48;22.25;;;11.43;;
47866;SDS011;33628;50.806;11.586;2022-11-15T06:42:35;16.05;;;9.70;;
47866;SDS011;33628;50.806;11.586;2022-11-15T06:45:20;22.65;;;10.60;;
47866;SDS011;33628;50.806;11.586;2022-11-15T06:48:05;21.95;;;11.18;;
47866;SDS011;33628;50.806;11.586;2022-11-15T06:50:50;20.48;;;9.55;;
47866;SDS011;33628;50.806;11.586;2022-11-15T06:53:36;23.10;;;8.63;;
47866;SDS011;33628;50.806;11.586;2022-11-15T06:56:21;18.35;;;8.77;;
47866;SDS011;33628;50.806;11.586;2022-11-15T06:59:08;15.10;;;7.13;;
47866;SDS011;33628;50.806;11.586;2022-11-15T07:01:53;20.33;;;8.48;;
47866;SDS011;33628;50.806;11.586;2022-11-15T07:04:38;20.90;;;9.95;;
47866;SDS011;33628;50.806;11.586;2022-11-15T07:07:23;25.98;;;11.68;;
47866;SDS011;33628;50.806;11.586;2022-11-15T07:10:09;18.95;;;10.43;;
47866;SDS011;33628;50.806;11.586;2022-11-15T07:12:54;26.58;;;13.02;;
47866;SDS011;33628;50.806;11.586;2022-11-15T07:15:44;35.35;;;14.15;;
47866;SDS011;33628;50.806;11.586;2022-11-15T07:18:29;37.72;;;20.58;;
47866;SDS011;33628;50.806;11.586;2022-11-15T07:21:14;21.48;;;12.55;;
47866;SDS011;33628;50.806;11.586;2022-11-15T07:23:59;26.05;;;12.48;;
47866;SDS011;33628;50.806;11.586;2022-11-15T07:26:45;21.10;;;10.95;;
47866;SDS011;33628;50.806;11.586;2022-11-15T07:29:30;17.90;;;9.40;;
47866;SDS011;33628;50.806;11.586;2022-11-15T07:32:17;18.85;;;10.63;;
47866;SDS011;33628;50.806;11.586;2022-11-15T07:35:01;12.23;;;8.40;;
47866;SDS011;33628;50.806;11.586;2022-11-15T07:37:52;21.58;;;10.80;;
47866;SDS011;33628;50.806;11.586;2022-11-15T07:40:39;26.65;;;12.07;;
47866;SDS011;33628;50.806;11.586;2022-11-15T07:43:23;23.25;;;11.05;;
47866;SDS011;33628;50.806;11.586;2022-11-15T07:46:08;27.05;;;14.63;;
47866;SDS011;33628;50.806;11.586;2022-11-15T07:48:55;22.10;;;13.23;;
47866;SDS011;33628;50.806;11.586;2022-11-15T07:51:40;15.00;;;8.48;;
47866;SDS011;33628;50.806;11.586;2022-11-15T07:54:25;19.17;;;11.32;;
47866;SDS011;33628;50.806;11.586;2022-11-15T07:57:10;19.88;;;10.07;;
47866;SDS011;33628;50.806;11.586;2022-11-15T07:59:55;26.73;;;13.35;;
47866;SDS011;33628;50.806;11.586;2022-11-15T08:02:40;25.23;;;13.23;;
47866;SDS011;33628;50.806;11.586;2022-11-15T08:05:27;16.55;;;9.70;;
47866;SDS011;33628;50.806;11.586;2022-11-15T08:08:12;22.67;;;10.65;;
47866;SDS011;33628;50.806;11.586;2022-11-15T08:10:57;22.02;;;10.80;;
47866;SDS011;33628;50.806;11.586;2022-11-15T08:13:42;21.92;;;12.10;;
47866;SDS011;33628;50.806;11.586;2022-11-15T08:16:29;19.80;;;9.20;;
47866;SDS011;33628;50.806;11.586;2022-11-15T08:19:14;18.02;;;8.38;;
47866;SDS011;33628;50.806;11.586;2022-11-15T08:22:01;11.10;;;7.35;;
47866;SDS011;33628;50.806;11.586;2022-11-15T08:24:46;12.15;;;7.43;;
47866;SDS011;33628;50.806;11.586;2022-11-15T08:27:31;14.70;;;8.23;;
47866;SDS011;33628;50.806;11.586;2022-11-15T08:30:16;21.77;;;12.43;;
47866;SDS011;33628;50.806;11.586;2022-11-15T08:33:02;18.83;;;10.55;;
47866;SDS011;33628;50.806;11.586;2022-11-15T08:35:47;16.73;;;9.30;;
47866;SDS011;33628;50.806;11.586;2022-11-15T08:38:34;20.52;;;10.43;;
47866;SDS011;33628;50.806;11.586;2022-11-15T08:41:23;22.33;;;11.32;;
47866;SDS011;33628;50.806;11.586;2022-11-15T08:44:10;14.18;;;7.10;;
47866;SDS011;33628;50.806;11.586;2022-11-15T08:46:55;18.85;;;6.85;;
47866;SDS011;33628;50.806;11.586;2022-11-15T08:49:41;16.67;;;6.88;;
47866;SDS011;33628;50.806;11.586;2022-11-15T08:52:26;21.05;;;6.10;;
47866;SDS011;33628;50.806;11.586;2022-11-15T08:55:12;14.23;;;4.90;;
47866;SDS011;33628;50.806;11.586;2022-11-15T08:57:57;8.05;;;4.68;;
47866;SDS011;33628;50.806;11.586;2022-11-15T09:00:43;9.27;;;5.75;;
47866;SDS011;33628;50.806;11.586;2022-11-15T09:03:28;15.25;;;6.85;;
47866;SDS011;33628;50.806;11.586;2022-11-15T09:06:13;11.85;;;6.78;;
47866;SDS011;33628;50.806;11.586;2022-11-15T09:09:00;12.70;;;6.15;;
47866;SDS011;33628;50.806;11.586;2022-11-15T09:11:46;12.50;;;6.30;;
47866;SDS011;33628;50.806;11.586;2022-11-15T09:14:31;12.13;;;5.43;;
47866;SDS011;33628;50.806;11.586;2022-11-15T09:17:17;12.73;;;5.75;;
47866;SDS011;33628;50.806;11.586;2022-11-15T09:20:02;10.27;;;5.40;;
47866;SDS011;33628;50.806;11.586;2022-11-15T09:22:48;13.38;;;5.85;;
47866;SDS011;33628;50.806;11.586;2022-11-15T09:25:34;20.58;;;12.73;;
47866;SDS011;33628;50.806;11.586;2022-11-15T09:28:21;22.67;;;8.85;;
47866;SDS011;33628;50.806;11.586;2022-11-15T09:31:06;17.35;;;7.05;;
47866;SDS011;33628;50.806;11.586;2022-11-15T09:33:51;14.80;;;7.32;;
47866;SDS011;33628;50.806;11.586;2022-11-15T09:36:36;14.77;;;7.38;;
47866;SDS011;33628;50.806;11.586;2022-11-15T09:39:22;15.48;;;8.70;;
47866;SDS011;33628;50.806;11.586;2022-11-15T09:42:10;12.20;;;6.22;;
47866;SDS011;33628;50.806;11.586;2022-11-15T09:45:10;10.00;;;5.97;;
47866;SDS011;33628;50.806;11.586;2022-11-15T09:48:18;13.02;;;5.85;;
47866;SDS011;33628;50.806;11.586;2022-11-15T09:51:27;11.85;;;7.18;;
47866;SDS011;33628;50.806;11.586;2022-11-15T09:53:58;8.65;;;5.50;;
47866;SDS011;33628;50.806;11.586;2022-11-15T09:56:36;11.40;;;6.18;;
47866;SDS011;33628;50.806;11.586;2022-11-15T09:59:12;14.07;;;7.97;;
47866;SDS011;33628;50.806;11.586;2022-11-15T10:01:49;11.40;;;7.63;;
47866;SDS011;33628;50.806;11.586;2022-11-15T10:04:23;10.05;;;5.50;;
47866;SDS011;33628;50.806;11.586;2022-11-15T10:06:53;13.30;;;6.22;;
47866;SDS011;33628;50.806;11.586;2022-11-15T10:09:23;9.10;;;6.45;;
47866;SDS011;33628;50.806;11.586;2022-11-15T10:11:52;8.57;;;5.50;;
47866;SDS011;33628;50.806;11.586;2022-11-15T10:14:19;12.25;;;6.43;;
47866;SDS011;33628;50.806;11.586;2022-11-15T10:17:01;10.15;;;6.28;;
47866;SDS011;33628;50.806;11.586;2022-11-15T10:19:46;10.48;;;6.47;;
47866;SDS011;33628;50.806;11.586;2022-11-15T10:22:26;13.02;;;6.53;;
47866;SDS011;33628;50.806;11.586;2022-11-15T10:24:59;10.30;;;6.82;;
47866;SDS011;33628;50.806;11.586;2022-11-15T10:27:37;10.27;;;7.57;;
47866;SDS011;33628;50.806;11.586;2022-11-15T10:30:06;10.10;;;7.55;;
47866;SDS011;33628;50.806;11.586;2022-11-15T10:32:39;12.30;;;7.22;;
47866;SDS011;33628;50.806;11.586;2022-11-15T10:35:15;11.55;;;6.97;;
47866;SDS011;33628;50.806;11.586;2022-11-15T10:37:46;9.48;;;6.78;;
47866;SDS011;33628;50.806;11.586;2022-11-15T10:40:17;17.75;;;11.13;;
47866;SDS011;33628;50.806;11.586;2022-11-15T10:42:46;12.10;;;8.88;;
47866;SDS011;33628;50.806;11.586;2022-11-15T10:45:23;8.35;;;6.18;;
47866;SDS011;33628;50.806;11.586;2022-11-15T10:47:52;9.70;;;6.67;;
47866;SDS011;33628;50.806;11.586;2022-11-15T10:50:26;10.10;;;7.22;;
47866;SDS011;33628;50.806;11.586;2022-11-15T10:52:55;9.82;;;6.38;;
47866;SDS011;33628;50.806;11.586;2022-11-15T10:55:28;9.45;;;6.03;;
47866;SDS011;33628;50.806;11.586;2022-11-15T10:58:02;11.68;;;5.60;;
47866;SDS011;33628;50.806;11.586;2022-11-15T11:00:33;6.70;;;4.90;;
47866;SDS011;33628;50.806;11.586;2022-11-15T11:03:20;5.93;;;4.82;;
47866;SDS011;33628;50.806;11.586;2022-11-15T11:06:02;7.20;;;4.20;;
47866;SDS011;33628;50.806;11.586;2022-11-15T11:08:31;8.10;;;4.75;;
47866;SDS011;33628;50.806;11.586;2022-11-15T11:11:01;7.90;;;4.03;;
47866;SDS011;33628;50.806;11.586;2022-11-15T11:13:29;6.72;;;4.18;;
47866;SDS011;33628;50.806;11.586;2022-11-15T11:16:03;4.90;;;3.92;;
47866;SDS011;33628;50.806;11.586;2022-11-15T11:19:02;9.25;;;5.40;;
47866;SDS011;33628;50.806;11.586;2022-11-15T11:21:39;7.28;;;4.68;;
47866;SDS011;33628;50.806;11.586;2022-11-15T11:24:12;7.03;;;4.40;;
47866;SDS011;33628;50.806;11.586;2022-11-15T11:26:45;8.35;;;4.38;;
47866;SDS011;33628;50.806;11.586;2022-11-15T11:29:20;7.00;;;4.50;;
47866;SDS011;33628;50.806;11.586;2022-11-15T11:31:57;6.07;;;4.47;;
47866;SDS011;33628;50.806;11.586;2022-11-15T11:34:36;5.50;;;4.25;;
47866;SDS011;33628;50.806;11.586;2022-11-15T11:37:11;5.25;;;3.95;;
47866;SDS011;33628;50.806;11.586;2022-11-15T11:39:45;7.07;;;3.97;;
47866;SDS011;33628;50.806;11.586;2022-11-15T11:42:17;3.75;;;3.35;;
47866;SDS011;33628;50.806;11.586;2022-11-15T11:44:51;7.65;;;3.70;;
47866;SDS011;33628;50.806;11.586;2022-11-15T11:47:23;4.85;;;3.25;;
47866;SDS011;33628;50.806;11.586;2022-11-15T11:49:57;8.80;;;4.70;;
47866;SDS011;33628;50.806;11.586;2022-11-15T11:52:27;6.43;;;3.72;;
47866;SDS011;33628;50.806;11.586;2022-11-15T11:54:58;5.72;;;4.45;;
47866;SDS011;33628;50.806;11.586;2022-11-15T11:57:31;7.00;;;3.40;;
47866;SDS011;33628;50.806;11.586;2022-11-15T12:00:03;4.55;;;2.88;;
47866;SDS011;33628;50.806;11.586;2022-11-15T12:02:41;4.72;;;3.25;;
47866;SDS011;33628;50.806;11.586;2022-11-15T12:05:12;4.43;;;3.53;;
47866;SDS011;33628;50.806;11.586;2022-11-15T12:07:42;4.80;;;2.85;;
47866;SDS011;33628;50.806;11.586;2022-11-15T12:10:15;3.20;;;2.47;;
47866;SDS011;33628;50.806;11.586;2022-11-15T12:12:49;7.28;;;2.90;;
47866;SDS011;33628;50.806;11.586;2022-11-15T12:15:22;5.50;;;3.50;;
47866;SDS011;33628;50.806;11.586;2022-11-15T12:17:51;7.60;;;3.85;;
47866;SDS011;33628;50.806;11.586;2022-11-15T12:20:19;5.70;;;3.08;;
47866;SDS011;33628;50.806;11.586;2022-11-15T12:22:49;6.03;;;4.00;;
47866;SDS011;33628;50.806;11.586;2022-11-15T12:25:20;5.32;;;3.55;;
47866;SDS011;33628;50.806;11.586;2022-11-15T12:27:50;8.32;;;4.13;;
47866;SDS011;33628;50.806;11.586;2022-11-15T12:30:21;10.55;;;3.92;;
47866;SDS011;33628;50.806;11.586;2022-11-15T12:32:50;6.68;;;3.00;;
47866;SDS011;33628;50.806;11.586;2022-11-15T12:35:24;8.18;;;2.90;;
47866;SDS011;33628;50.806;11.586;2022-11-15T12:38:00;5.00;;;2.67;;
47866;SDS011;33628;50.806;11.586;2022-11-15T12:40:31;6.15;;;2.30;;
47866;SDS011;33628;50.806;11.586;2022-11-15T12:43:00;4.53;;;2.17;;
47866;SDS011;33628;50.806;11.586;2022-11-15T12:45:42;2.50;;;1.75;;
47866;SDS011;33628;50.806;11.586;2022-11-15T12:51:13;3.28;;;1.92;;
47866;SDS011;33628;50.806;11.586;2022-11-15T12:53:40;3.03;;;1.70;;
47866;SDS011;33628;50.806;11.586;2022-11-15T12:56:17;3.25;;;2.03;;
47866;SDS011;33628;50.806;11.586;2022-11-15T12:58:49;2.50;;;1.35;;
47866;SDS011;33628;50.806;11.586;2022-11-15T13:04:28;5.88;;;1.90;;
47866;SDS011;33628;50.806;11.586;2022-11-15T13:06:57;1.83;;;1.30;;
47866;SDS011;33628;50.806;11.586;2022-11-15T13:18:33;5.70;;;2.17;;
47866;SDS011;33628;50.806;11.586;2022-11-15T13:21:03;3.35;;;1.70;;
47866;SDS011;33628;50.806;11.586;2022-11-15T13:23:55;3.63;;;1.60;;
47866;SDS011;33628;50.806;11.586;2022-11-15T13:26:22;3.92;;;1.35;;
47866;SDS011;33628;50.806;11.586;2022-11-15T13:28:50;3.92;;;1.73;;
47866;SDS011;33628;50.806;11.586;2022-11-15T13:31:24;4.85;;;2.72;;
47866;SDS011;33628;50.806;11.586;2022-11-15T13:33:55;2.00;;;1.40;;
47866;SDS011;33628;50.806;11.586;2022-11-15T13:36:25;4.40;;;1.33;;
47866;SDS011;33628;50.806;11.586;2022-11-15T13:38:54;3.60;;;1.88;;
47866;SDS011;33628;50.806;11.586;2022-11-15T13:41:24;3.78;;;1.80;;
47866;SDS011;33628;50.806;11.586;2022-11-15T13:43:52;5.00;;;1.77;;
47866;SDS011;33628;50.806;11.586;2022-11-15T13:46:20;4.93;;;1.75;;
47866;SDS011;33628;50.806;11.586;2022-11-15T13:48:51;4.03;;;1.60;;
47866;SDS011;33628;50.806;11.586;2022-11-15T13:51:21;7.75;;;2.78;;
47866;SDS011;33628;50.806;11.586;2022-11-15T13:53:51;2.78;;;1.92;;
47866;SDS011;33628;50.806;11.586;2022-11-15T13:56:21;5.18;;;2.10;;
47866;SDS011;33628;50.806;11.586;2022-11-15T13:58:48;4.82;;;1.80;;
47866;SDS011;33628;50.806;11.586;2022-11-15T14:01:17;6.35;;;2.22;;
47866;SDS011;33628;50.806;11.586;2022-11-15T14:03:47;4.88;;;2.20;;
47866;SDS011;33628;50.806;11.586;2022-11-15T14:06:19;6.10;;;2.47;;
47866;SDS011;33628;50.806;11.586;2022-11-15T14:09:01;8.82;;;2.22;;
47866;SDS011;33628;50.806;11.586;2022-11-15T14:11:52;6.20;;;2.28;;
47866;SDS011;33628;50.806;11.586;2022-11-15T14:14:22;5.95;;;2.53;;
47866;SDS011;33628;50.806;11.586;2022-11-15T14:16:50;5.22;;;2.72;;
47866;SDS011;33628;50.806;11.586;2022-11-15T14:19:35;6.93;;;3.67;;
47866;SDS011;33628;50.806;11.586;2022-11-15T14:22:10;6.07;;;2.83;;
47866;SDS011;33628;50.806;11.586;2022-11-15T14:24:42;4.18;;;2.50;;
47866;SDS011;33628;50.806;11.586;2022-11-15T14:27:18;4.82;;;2.53;;
47866;SDS011;33628;50.806;11.586;2022-11-15T14:29:49;6.00;;;2.58;;
47866;SDS011;33628;50.806;11.586;2022-11-15T14:32:16;6.20;;;2.10;;
47866;SDS011;33628;50.806;11.586;2022-11-15T14:34:45;5.13;;;2.35;;
47866;SDS011;33628;50.806;11.586;2022-11-15T14:37:21;4.97;;;2.17;;
47866;SDS011;33628;50.806;11.586;2022-11-15T14:39:50;4.15;;;2.20;;
47866;SDS011;33628;50.806;11.586;2022-11-15T14:42:19;8.90;;;2.03;;
47866;SDS011;33628;50.806;11.586;2022-11-15T14:44:47;5.00;;;2.05;;
47866;SDS011;33628;50.806;11.586;2022-11-15T14:47:16;8.55;;;2.47;;
47866;SDS011;33628;50.806;11.586;2022-11-15T14:49:47;6.97;;;2.92;;
47866;SDS011;33628;50.806;11.586;2022-11-15T14:52:31;5.22;;;2.60;;
47866;SDS011;33628;50.806;11.586;2022-11-15T14:55:14;7.00;;;3.28;;
47866;SDS011;33628;50.806;11.586;2022-11-15T14:57:48;9.73;;;3.92;;
47866;SDS011;33628;50.806;11.586;2022-11-15T15:00:21;15.52;;;5.50;;
47866;SDS011;33628;50.806;11.586;2022-11-15T15:02:58;14.88;;;5.30;;
47866;SDS011;33628;50.806;11.586;2022-11-15T15:05:32;8.93;;;3.67;;
47866;SDS011;33628;50.806;11.586;2022-11-15T15:08:05;8.30;;;3.67;;
47866;SDS011;33628;50.806;11.586;2022-11-15T15:10:35;7.63;;;3.67;;
47866;SDS011;33628;50.806;11.586;2022-11-15T15:13:04;7.70;;;4.80;;
47866;SDS011;33628;50.806;11.586;2022-11-15T15:15:35;7.88;;;4.75;;
47866;SDS011;33628;50.806;11.586;2022-11-15T15:18:03;7.88;;;3.80;;
47866;SDS011;33628;50.806;11.586;2022-11-15T15:20:30;11.50;;;6.00;;
47866;SDS011;33628;50.806;11.586;2022-11-15T15:22:57;7.95;;;4.80;;
47866;SDS011;33628;50.806;11.586;2022-11-15T15:25:26;11.35;;;5.10;;
47866;SDS011;33628;50.806;11.586;2022-11-15T15:27:54;11.25;;;5.22;;
47866;SDS011;33628;50.806;11.586;2022-11-15T15:30:29;9.55;;;5.95;;
47866;SDS011;33628;50.806;11.586;2022-11-15T15:33:10;11.90;;;5.57;;
47866;SDS011;33628;50.806;11.586;2022-11-15T15:35:52;37.45;;;17.65;;
47866;SDS011;33628;50.806;11.586;2022-11-15T15:38:24;35.45;;;15.85;;
47866;SDS011;33628;50.806;11.586;2022-11-15T15:41:00;14.07;;;8.65;;
47866;SDS011;33628;50.806;11.586;2022-11-15T15:43:39;14.38;;;7.97;;
47866;SDS011;33628;50.806;11.586;2022-11-15T15:46:13;21.42;;;6.90;;
47866;SDS011;33628;50.806;11.586;2022-11-15T15:48:47;7.63;;;4.78;;
47866;SDS011;33628;50.806;11.586;2022-11-15T15:51:14;9.35;;;4.57;;
47866;SDS011;33628;50.806;11.586;2022-11-15T15:53:41;7.10;;;4.05;;
47866;SDS011;33628;50.806;11.586;2022-11-15T15:56:14;10.32;;;5.38;;
47866;SDS011;33628;50.806;11.586;2022-11-15T15:58:47;12.30;;;6.72;;
47866;SDS011;33628;50.806;11.586;2022-11-15T16:01:33;10.27;;;5.00;;
47866;SDS011;33628;50.806;11.586;2022-11-15T16:04:18;8.35;;;4.00;;
47866;SDS011;33628;50.806;11.586;2022-11-15T16:06:45;10.20;;;7.15;;
47866;SDS011;33628;50.806;11.586;2022-11-15T16:09:26;13.93;;;7.50;;
47866;SDS011;33628;50.806;11.586;2022-11-15T16:15:14;13.02;;;7.30;;
47866;SDS011;33628;50.806;11.586;2022-11-15T16:17:48;13.32;;;6.18;;
47866;SDS011;33628;50.806;11.586;2022-11-15T16:20:23;9.45;;;5.47;;